Time;durP1;ratioP1;P1;durP2;ratioP2;P2;SDS_P1;SDS_P2;PMS_P1;PMS_P2;Temp;Humidity;BMP_temperature;BMP_pressure;BME280_temperature;BME280_humidity;BME280_pressure;Samples;Min_cycle;Max_cycle;Signal;HPM_P1;HPM_P2
2022/05/05 00:02:24;;;;;;;8.80;6.95;;;10.90;99.90;;;;;;4995491;28;20063;-72
2022/05/05 00:04:49;;;;;;;10.68;7.93;;;10.90;99.90;;;;;;4993165;28;20026;-71
2022/05/05 00:07:15;;;;;;;10.38;8.20;;;10.90;99.90;;;;;;4992919;28;20157;-71
2022/05/05 00:09:40;;;;;;;9.60;7.47;;;10.90;99.90;;;;;;4992564;28;20022;-70
2022/05/05 00:14:51;;;;;;;9.57;7.30;;;10.90;99.90;;;;;;4992105;28;20033;-71
2022/05/05 00:17:16;;;;;;;10.30;8.00;;;10.90;99.90;;;;;;4992989;28;20022;-72
2022/05/05 00:19:42;;;;;;;9.88;8.07;;;10.90;99.90;;;;;;4992949;28;20056;-71
2022/05/05 00:22:10;;;;;;;7.57;6.88;;;10.90;99.90;;;;;;4992261;28;20030;-71
2022/05/05 00:24:37;;;;;;;9.65;7.60;;;10.90;99.90;;;;;;5005829;28;20108;-72
2022/05/05 00:27:03;;;;;;;9.25;7.72;;;10.90;99.90;;;;;;5016739;28;20030;-72
2022/05/05 00:29:28;;;;;;;11.77;7.82;;;10.80;99.90;;;;;;5011713;28;20418;-71
2022/05/05 00:31:54;;;;;;;9.98;7.97;;;10.80;99.90;;;;;;5012225;28;20103;-71
2022/05/05 00:34:20;;;;;;;9.25;7.25;;;10.80;99.90;;;;;;5012448;28;20097;-71
2022/05/05 00:36:45;;;;;;;8.93;7.13;;;10.80;99.90;;;;;;5012163;28;20472;-71
2022/05/05 00:39:12;;;;;;;7.97;7.10;;;10.80;99.90;;;;;;5011963;28;20521;-71
2022/05/05 00:41:46;;;;;;;8.80;6.82;;;10.80;99.90;;;;;;5012189;28;20030;-71
2022/05/05 00:44:13;;;;;;;10.15;7.32;;;10.70;99.90;;;;;;5011559;28;20026;-71
2022/05/05 00:46:39;;;;;;;10.73;8.20;;;10.70;99.90;;;;;;5012387;28;20026;-71
2022/05/05 00:49:05;;;;;;;8.93;8.02;;;10.70;99.90;;;;;;5012134;28;20033;-72
2022/05/05 00:51:31;;;;;;;9.68;7.50;;;10.60;99.90;;;;;;5011449;28;20377;-71
2022/05/05 00:53:56;;;;;;;13.85;9.20;;;10.60;99.90;;;;;;5011883;28;20018;-71
2022/05/05 00:56:23;;;;;;;13.55;7.90;;;10.50;99.90;;;;;;5011970;28;20057;-71
2022/05/05 00:58:50;;;;;;;9.77;8.65;;;10.50;99.90;;;;;;5011496;28;20101;-71
2022/05/05 01:01:21;;;;;;;10.40;7.60;;;10.50;99.90;;;;;;5012165;28;20040;-71
2022/05/05 01:03:48;;;;;;;9.75;8.05;;;10.40;99.90;;;;;;5012749;28;20152;-71
2022/05/05 01:06:14;;;;;;;12.63;9.13;;;10.50;99.90;;;;;;5012074;28;20029;-71
2022/05/05 01:08:40;;;;;;;9.05;7.70;;;10.50;99.90;;;;;;5012069;28;20382;-71
2022/05/05 01:11:07;;;;;;;10.65;8.82;;;10.60;99.90;;;;;;5011061;28;20034;-71
2022/05/05 01:13:33;;;;;;;11.82;8.23;;;10.60;99.90;;;;;;5012172;28;20033;-71
2022/05/05 01:15:59;;;;;;;9.95;7.90;;;10.60;99.90;;;;;;5011876;28;20038;-71
2022/05/05 01:18:25;;;;;;;10.00;8.00;;;10.60;99.90;;;;;;5011453;28;20029;-71
2022/05/05 01:20:54;;;;;;;11.48;8.82;;;10.60;99.90;;;;;;5011705;28;20040;-71
2022/05/05 01:23:20;;;;;;;11.43;8.75;;;10.60;99.90;;;;;;5012110;28;20389;-71
2022/05/05 01:28:32;;;;;;;9.43;8.60;;;10.50;99.90;;;;;;5012206;28;20387;-71
2022/05/05 01:30:59;;;;;;;10.38;9.00;;;10.40;99.90;;;;;;5012244;28;20026;-71
2022/05/05 01:33:27;;;;;;;10.30;9.15;;;10.40;99.90;;;;;;5013282;28;20041;-71
2022/05/05 01:35:54;;;;;;;12.55;8.88;;;10.30;99.90;;;;;;5011539;28;20033;-71
2022/05/05 01:38:23;;;;;;;11.93;9.07;;;10.30;99.90;;;;;;5012001;28;20409;-71
2022/05/05 01:40:48;;;;;;;11.27;8.82;;;10.20;99.90;;;;;;5010859;28;20045;-71
2022/05/05 01:43:23;;;;;;;9.77;8.40;;;10.20;99.90;;;;;;5011717;28;20485;-71
2022/05/05 01:45:52;;;;;;;15.82;9.43;;;10.10;99.90;;;;;;5014776;28;20061;-71
2022/05/05 01:48:17;;;;;;;11.75;9.02;;;10.00;99.90;;;;;;5016465;28;20022;-70
2022/05/05 01:50:44;;;;;;;12.32;10.18;;;10.00;99.90;;;;;;5017491;28;20029;-71
2022/05/05 01:53:10;;;;;;;12.93;9.80;;;9.90;99.90;;;;;;5014444;28;20025;-70
2022/05/05 01:55:35;;;;;;;10.20;8.93;;;9.90;99.90;;;;;;5015003;28;20137;-72
2022/05/05 01:58:02;;;;;;;15.60;10.32;;;9.90;99.90;;;;;;5014999;28;20046;-72
2022/05/05 02:00:28;;;;;;;14.63;9.55;;;9.80;99.90;;;;;;5014425;28;20037;-72
2022/05/05 02:03:15;;;;;;;11.48;9.48;;;9.80;99.90;;;;;;5015125;28;20129;-73
2022/05/05 02:05:42;;;;;;;13.40;9.60;;;9.80;99.90;;;;;;5015817;28;20036;-71
2022/05/05 02:08:09;;;;;;;11.75;9.05;;;9.80;99.90;;;;;;5014005;28;20038;-71
2022/05/05 02:10:35;;;;;;;12.23;8.85;;;9.70;99.90;;;;;;5014845;28;20033;-70
2022/05/05 02:13:00;;;;;;;11.32;9.93;;;9.70;99.90;;;;;;5014810;28;20034;-71
2022/05/05 02:15:27;;;;;;;15.35;9.55;;;9.80;99.90;;;;;;5014592;28;20413;-72
2022/05/05 02:17:53;;;;;;;13.23;8.98;;;9.70;99.90;;;;;;5014719;28;20034;-71
2022/05/05 02:20:19;;;;;;;10.80;9.23;;;9.70;99.90;;;;;;5014622;28;20448;-71
2022/05/05 02:22:44;;;;;;;14.48;8.68;;;9.70;99.90;;;;;;5014000;28;20469;-71
2022/05/05 02:25:10;;;;;;;9.90;8.75;;;9.70;99.90;;;;;;5014243;28;20041;-71
2022/05/05 02:27:52;;;;;;;12.07;8.82;;;9.70;99.90;;;;;;5014729;28;20064;-71
2022/05/05 02:30:20;;;;;;;15.75;9.35;;;9.70;99.90;;;;;;5013931;28;20045;-71
2022/05/05 02:32:46;;;;;;;11.50;9.63;;;9.70;99.90;;;;;;5014754;28;20026;-71
2022/05/05 02:35:11;;;;;;;11.40;9.10;;;9.60;99.90;;;;;;5013516;28;20063;-71
2022/05/05 02:40:24;;;;;;;11.35;8.68;;;9.60;99.90;;;;;;5014336;28;20079;-71
2022/05/05 02:42:49;;;;;;;9.85;8.85;;;9.50;99.90;;;;;;5013618;28;20112;-71
2022/05/05 02:45:15;;;;;;;12.60;9.68;;;9.60;99.90;;;;;;5014481;28;20064;-71
2022/05/05 02:47:41;;;;;;;9.75;8.68;;;9.50;99.90;;;;;;5014326;28;20474;-71
2022/05/05 02:50:07;;;;;;;13.75;9.27;;;9.50;99.90;;;;;;5013215;28;20032;-70
2022/05/05 02:52:32;;;;;;;16.75;10.23;;;9.40;99.90;;;;;;5014175;28;20494;-71
2022/05/05 02:54:58;;;;;;;12.27;9.20;;;9.40;99.90;;;;;;5013069;28;20092;-71
2022/05/05 02:57:24;;;;;;;22.85;10.63;;;9.40;99.90;;;;;;5012851;28;20045;-70
2022/05/05 02:59:53;;;;;;;14.48;8.80;;;9.40;99.90;;;;;;5014074;28;20037;-72
2022/05/05 03:02:19;;;;;;;11.18;9.20;;;9.40;99.90;;;;;;5014322;28;20048;-71
2022/05/05 03:04:45;;;;;;;13.48;9.57;;;9.30;99.90;;;;;;5013424;28;20033;-71
2022/05/05 03:07:11;;;;;;;13.55;9.68;;;9.30;99.90;;;;;;5013659;28;20032;-71
2022/05/05 03:09:39;;;;;;;15.25;10.40;;;9.30;99.90;;;;;;5014383;28;20030;-72
2022/05/05 03:12:05;;;;;;;13.25;9.82;;;9.30;99.90;;;;;;5020446;28;20045;-71
2022/05/05 03:14:31;;;;;;;13.88;9.77;;;9.20;99.90;;;;;;5017267;28;20034;-72
2022/05/05 03:16:57;;;;;;;14.88;9.05;;;9.20;99.90;;;;;;5013525;28;20088;-70
2022/05/05 03:19:22;;;;;;;12.77;8.95;;;9.30;99.90;;;;;;5012772;28;20029;-71
2022/05/05 03:21:48;;;;;;;10.95;8.48;;;9.30;99.90;;;;;;5013252;28;20083;-71
2022/05/05 03:24:13;;;;;;;11.77;8.93;;;9.20;99.90;;;;;;5012891;28;20022;-71
2022/05/05 03:26:39;;;;;;;14.10;8.90;;;9.20;99.90;;;;;;5013690;28;20041;-71
2022/05/05 03:29:04;;;;;;;12.65;9.25;;;9.20;99.90;;;;;;5013392;28;20037;-71
2022/05/05 03:31:32;;;;;;;14.65;9.80;;;9.20;99.90;;;;;;5013426;28;20932;-70
2022/05/05 03:33:58;;;;;;;12.35;10.02;;;9.20;99.90;;;;;;5012995;28;20504;-71
2022/05/05 03:36:23;;;;;;;15.20;9.25;;;9.20;99.90;;;;;;5013329;28;20038;-71
2022/05/05 03:38:50;;;;;;;14.35;10.05;;;9.10;99.90;;;;;;5012208;28;20421;-71
2022/05/05 03:41:15;;;;;;;15.68;9.15;;;9.20;99.90;;;;;;5013232;28;20050;-71
2022/05/05 03:43:41;;;;;;;14.20;10.05;;;9.10;99.90;;;;;;5013673;28;20488;-71
2022/05/05 03:46:07;;;;;;;10.40;9.30;;;9.10;99.90;;;;;;5012154;28;20076;-71
2022/05/05 03:48:33;;;;;;;13.00;9.52;;;9.10;99.90;;;;;;5013036;28;20122;-73
2022/05/05 03:50:58;;;;;;;13.77;9.65;;;9.10;99.90;;;;;;5012869;28;20116;-71
2022/05/05 03:53:24;;;;;;;12.23;9.15;;;9.10;99.90;;;;;;5011902;28;20034;-71
2022/05/05 03:55:49;;;;;;;15.20;9.95;;;9.00;99.90;;;;;;5012674;28;20053;-70
2022/05/05 03:58:15;;;;;;;13.93;10.02;;;9.00;99.90;;;;;;5013495;28;20029;-71
2022/05/05 04:00:41;;;;;;;11.20;9.02;;;9.00;99.90;;;;;;5012238;28;20128;-72
2022/05/05 04:05:50;;;;;;;12.00;9.57;;;9.00;99.90;;;;;;5012729;28;20036;-71
2022/05/05 04:08:16;;;;;;;13.70;10.23;;;9.00;99.90;;;;;;5012360;28;20022;-72
2022/05/05 04:10:41;;;;;;;18.23;10.88;;;9.00;99.90;;;;;;5012626;28;20030;-72
2022/05/05 04:13:07;;;;;;;14.70;9.93;;;9.00;99.90;;;;;;5012173;28;20056;-72
2022/05/05 04:15:33;;;;;;;13.93;10.02;;;9.00;99.90;;;;;;5011968;28;20069;-70
2022/05/05 04:18:00;;;;;;;18.10;10.68;;;9.00;99.90;;;;;;5012200;28;20466;-71
2022/05/05 04:20:28;;;;;;;15.70;9.98;;;9.00;99.90;;;;;;5012454;28;20045;-72
2022/05/05 04:22:55;;;;;;;19.23;10.90;;;9.10;99.90;;;;;;5012236;28;20033;-71
2022/05/05 04:25:21;;;;;;;16.35;10.05;;;9.10;99.90;;;;;;5012308;28;20030;-71
2022/05/05 04:27:49;;;;;;;13.90;9.85;;;9.10;99.90;;;;;;5011774;28;20033;-72
2022/05/05 04:30:16;;;;;;;15.25;10.90;;;9.20;99.90;;;;;;5012462;28;20033;-70
2022/05/05 04:32:42;;;;;;;14.60;10.18;;;9.30;99.90;;;;;;5012523;28;20077;-71
2022/05/05 04:35:08;;;;;;;16.52;10.13;;;9.30;99.90;;;;;;5012036;28;20034;-71
2022/05/05 04:37:34;;;;;;;12.68;9.88;;;9.40;99.90;;;;;;5012863;28;20018;-71
2022/05/05 04:39:59;;;;;;;13.93;10.13;;;9.50;99.90;;;;;;5012044;28;20056;-71
2022/05/05 04:42:25;;;;;;;17.15;10.35;;;9.50;99.90;;;;;;5011523;28;20026;-72
2022/05/05 04:44:51;;;;;;;24.38;11.27;;;9.60;99.90;;;;;;5012146;28;20026;-71
2022/05/05 04:47:17;;;;;;;17.83;11.35;;;9.70;99.90;;;;;;5012322;28;20493;-72
2022/05/05 04:49:42;;;;;;;23.17;12.93;;;9.80;99.90;;;;;;5011628;28;20037;-71
2022/05/05 04:52:08;;;;;;;16.02;10.23;;;9.80;99.90;;;;;;5012088;28;20033;-71
2022/05/05 04:54:37;;;;;;;23.02;11.27;;;9.90;99.90;;;;;;5012245;28;20107;-71
2022/05/05 04:57:02;;;;;;;30.10;11.82;;;10.00;99.90;;;;;;5010996;28;20069;-71
2022/05/05 04:59:29;;;;;;;16.67;10.95;;;10.00;99.90;;;;;;5012034;28;20058;-71
2022/05/05 05:01:54;;;;;;;15.23;10.23;;;10.10;99.90;;;;;;5011641;28;20038;-71
2022/05/05 05:04:20;;;;;;;17.45;11.38;;;10.10;99.90;;;;;;5011772;28;20053;-71
2022/05/05 05:06:46;;;;;;;24.48;11.77;;;10.20;99.90;;;;;;5012423;28;20030;-71
2022/05/05 05:09:11;;;;;;;19.10;11.10;;;10.20;99.90;;;;;;5011862;28;20536;-71
2022/05/05 05:11:37;;;;;;;20.42;12.20;;;10.30;99.90;;;;;;5011596;28;20041;-72
2022/05/05 05:14:02;;;;;;;21.85;11.73;;;10.30;99.90;;;;;;5012258;28;20025;-71
2022/05/05 05:16:28;;;;;;;27.35;12.80;;;10.30;99.90;;;;;;5011877;28;20032;-72
2022/05/05 05:18:54;;;;;;;27.85;13.20;;;10.40;99.90;;;;;;5011823;28;20030;-71
2022/05/05 05:21:22;;;;;;;23.98;11.60;;;10.40;99.90;;;;;;5016176;28;20034;-72
2022/05/05 05:23:47;;;;;;;20.70;12.60;;;10.40;99.90;;;;;;5014945;28;20105;-71
2022/05/05 05:26:16;;;;;;;21.35;11.50;;;10.40;99.90;;;;;;5015821;28;20052;-72
2022/05/05 05:28:42;;;;;;;25.00;12.02;;;10.40;99.90;;;;;;5015494;28;20560;-71
2022/05/05 05:31:08;;;;;;;21.73;12.95;;;10.50;99.90;;;;;;5014558;28;20030;-71
2022/05/05 05:33:34;;;;;;;18.33;11.52;;;10.50;99.90;;;;;;5015774;28;20021;-72
2022/05/05 05:36:00;;;;;;;20.95;12.38;;;10.60;99.90;;;;;;5015407;28;20040;-72
2022/05/05 05:38:25;;;;;;;27.02;12.75;;;10.60;99.90;;;;;;5015058;28;20111;-71
2022/05/05 05:40:51;;;;;;;22.52;10.70;;;10.60;99.90;;;;;;5014868;28;20509;-71
2022/05/05 05:43:20;;;;;;;20.70;12.18;;;10.60;99.90;;;;;;5015489;28;20076;-73
2022/05/05 05:45:46;;;;;;;21.98;11.73;;;10.70;99.90;;;;;;5014728;28;20071;-71
2022/05/05 05:48:11;;;;;;;21.90;11.60;;;10.70;99.90;;;;;;5015425;28;20026;-71
2022/05/05 05:50:38;;;;;;;19.70;13.07;;;10.80;99.90;;;;;;5015672;28;20492;-72
2022/05/05 05:53:03;;;;;;;27.40;13.10;;;10.80;99.90;;;;;;5015733;28;20037;-72
2022/05/05 05:55:32;;;;;;;16.83;11.13;;;10.90;99.90;;;;;;5016702;28;20053;-71
2022/05/05 05:57:58;;;;;;;15.65;10.80;;;11.00;99.90;;;;;;5016652;28;20389;-71
2022/05/05 06:00:23;;;;;;;17.33;11.07;;;11.10;99.90;;;;;;5015598;28;20044;-72
2022/05/05 06:05:33;;;;;;;16.25;11.82;;;11.20;99.90;;;;;;5016713;28;20040;-71
2022/05/05 06:08:00;;;;;;;25.92;11.45;;;11.30;99.90;;;;;;5015596;28;20462;-71
2022/05/05 06:10:26;;;;;;;18.58;10.80;;;11.30;99.90;;;;;;5014826;28;20401;-72
2022/05/05 06:12:52;;;;;;;16.23;10.93;;;11.40;99.90;;;;;;5014687;28;20038;-73
2022/05/05 06:15:18;;;;;;;16.92;10.63;;;11.50;99.90;;;;;;5018192;28;20025;-72
2022/05/05 06:17:44;;;;;;;16.35;10.23;;;11.50;99.90;;;;;;5034325;28;20045;-73
2022/05/05 06:20:10;;;;;;;23.90;12.48;;;11.60;99.90;;;;;;5031230;28;20029;-72
2022/05/05 06:22:37;;;;;;;22.83;13.15;;;11.60;99.90;;;;;;5032820;28;20100;-71
2022/05/05 06:25:03;;;;;;;25.33;12.15;;;11.70;99.90;;;;;;5032434;28;20026;-72
2022/05/05 06:27:29;;;;;;;18.80;12.40;;;11.80;99.90;;;;;;5033372;28;20060;-71
2022/05/05 06:29:55;;;;;;;16.17;10.52;;;11.80;99.90;;;;;;5033927;28;20053;-72
2022/05/05 06:32:21;;;;;;;20.30;10.93;;;11.90;99.90;;;;;;5031101;28;20401;-72
2022/05/05 06:34:46;;;;;;;16.73;11.30;;;11.90;99.90;;;;;;5032032;28;20108;-72
2022/05/05 06:37:12;;;;;;;18.40;11.20;;;12.00;99.90;;;;;;5033165;28;20025;-72
2022/05/05 06:39:37;;;;;;;22.75;11.52;;;12.10;99.90;;;;;;5031095;28;20116;-72
2022/05/05 06:42:04;;;;;;;18.33;10.68;;;12.10;99.90;;;;;;5031625;28;20116;-72
2022/05/05 06:44:30;;;;;;;17.52;11.63;;;12.10;99.90;;;;;;5030022;28;20100;-72
2022/05/05 06:46:56;;;;;;;22.20;12.02;;;12.10;99.90;;;;;;5032082;28;20481;-72
2022/05/05 06:49:22;;;;;;;16.15;12.70;;;12.20;99.90;;;;;;5031883;28;20042;-72
2022/05/05 06:51:49;;;;;;;15.60;11.43;;;12.20;99.90;;;;;;5032119;28;20018;-71
2022/05/05 06:54:15;;;;;;;13.95;10.70;;;12.30;99.90;;;;;;5028897;28;20030;-72
2022/05/05 06:56:40;;;;;;;19.83;11.55;;;12.30;99.90;;;;;;5032831;28;20474;-72
2022/05/05 06:59:06;;;;;;;17.50;11.88;;;12.40;99.90;;;;;;5033219;28;20087;-71
2022/05/05 07:07:00;;;;;;;16.15;12.05;;;12.50;99.90;;;;;;5029306;28;20037;-70
2022/05/05 07:12:10;;;;;;;20.02;12.43;;;12.60;99.90;;;;;;5005200;28;20032;-72
2022/05/05 07:14:36;;;;;;;18.85;13.10;;;12.60;99.90;;;;;;5032005;28;20037;-71
2022/05/05 07:17:01;;;;;;;19.98;13.13;;;12.70;99.90;;;;;;5030407;28;20036;-71
2022/05/05 07:19:27;;;;;;;21.30;13.07;;;12.80;99.90;;;;;;5033765;28;20025;-71
2022/05/05 07:21:53;;;;;;;16.50;12.65;;;12.90;99.90;;;;;;5033600;28;20045;-71
2022/05/05 07:24:19;;;;;;;22.33;12.75;;;13.00;99.90;;;;;;5033180;28;20179;-70
2022/05/05 07:26:44;;;;;;;21.63;14.85;;;13.10;99.90;;;;;;5033530;28;20064;-72
2022/05/05 07:29:10;;;;;;;24.67;14.95;;;13.20;99.90;;;;;;5032311;28;20021;-71
2022/05/05 07:31:36;;;;;;;20.65;14.02;;;13.20;99.90;;;;;;5027415;28;20056;-71
2022/05/05 07:34:01;;;;;;;23.13;14.98;;;13.40;99.90;;;;;;5032820;28;20049;-71
2022/05/05 07:36:27;;;;;;;25.75;14.77;;;13.50;99.90;;;;;;5034641;28;20025;-72
2022/05/05 07:38:52;;;;;;;21.75;14.45;;;13.60;99.90;;;;;;5032004;28;20026;-71
2022/05/05 07:41:18;;;;;;;22.23;14.52;;;13.70;99.90;;;;;;5029554;28;20389;-72
2022/05/05 07:43:43;;;;;;;25.35;14.32;;;13.90;99.90;;;;;;5031803;28;20022;-72
2022/05/05 07:46:09;;;;;;;27.35;17.30;;;13.90;99.90;;;;;;5030874;28;20397;-72
2022/05/05 07:48:34;;;;;;;23.67;15.30;;;14.00;99.90;;;;;;5022683;28;20119;-72
2022/05/05 07:51:00;;;;;;;26.55;15.93;;;14.10;99.90;;;;;;5029267;28;20038;-71
2022/05/05 07:53:26;;;;;;;30.38;17.25;;;14.20;99.90;;;;;;5031059;28;20021;-73
2022/05/05 07:55:51;;;;;;;30.23;17.70;;;14.30;99.90;;;;;;5028563;28;20138;-72
2022/05/05 07:58:17;;;;;;;31.98;19.25;;;14.40;99.90;;;;;;5032603;28;20497;-73
2022/05/05 08:00:42;;;;;;;29.45;18.30;;;14.50;99.90;;;;;;5031765;28;20044;-71
2022/05/05 08:03:08;;;;;;;29.25;18.92;;;14.60;99.90;;;;;;5032026;28;20021;-71
2022/05/05 08:05:33;;;;;;;34.38;18.98;;;14.70;99.90;;;;;;5031737;28;20052;-72
2022/05/05 08:07:59;;;;;;;33.97;19.65;;;14.80;99.90;;;;;;5031030;28;20033;-70
2022/05/05 08:10:28;;;;;;;33.72;19.67;;;14.90;99.90;;;;;;5031650;28;20033;-73
2022/05/05 08:12:54;;;;;;;36.38;19.92;;;15.00;99.90;;;;;;5031173;28;20419;-72
2022/05/05 08:15:20;;;;;;;35.83;19.38;;;15.10;99.90;;;;;;5031852;28;20031;-72
2022/05/05 08:17:47;;;;;;;38.75;20.83;;;15.30;99.90;;;;;;5031810;28;20025;-72
2022/05/05 08:20:15;;;;;;;27.83;19.20;;;15.40;99.90;;;;;;5031372;28;20416;-73
2022/05/05 08:22:46;;;;;;;30.73;19.52;;;15.50;99.90;;;;;;5031969;28;20065;-73
2022/05/05 08:30:40;;;;;;;39.58;21.67;;;15.80;99.90;;;;;;5032855;28;20095;-73
2022/05/05 08:33:05;;;;;;;31.35;19.30;;;15.90;99.90;;;;;;5032195;28;20025;-72
2022/05/05 08:35:31;;;;;;;32.58;21.02;;;16.00;99.90;;;;;;5032053;28;20075;-72
2022/05/05 08:37:57;;;;;;;36.00;22.85;;;16.30;99.90;;;;;;5032549;28;20148;-72
2022/05/05 08:40:24;;;;;;;34.53;20.88;;;16.10;99.90;;;;;;5032375;28;20034;-72
2022/05/05 08:42:50;;;;;;;35.88;22.70;;;16.20;99.90;;;;;;5030542;28;20443;-72
2022/05/05 08:45:17;;;;;;;33.55;20.38;;;16.20;99.90;;;;;;5031936;28;20113;-72
2022/05/05 08:47:45;;;;;;;32.42;21.63;;;16.20;99.90;;;;;;5032794;28;20432;-72
2022/05/05 08:50:12;;;;;;;32.60;21.52;;;16.30;99.90;;;;;;5032401;28;20095;-73
2022/05/05 08:52:49;;;;;;;40.95;21.83;;;16.40;99.90;;;;;;5032388;28;20017;-72
2022/05/05 08:55:16;;;;;;;31.98;22.38;;;16.40;99.90;;;;;;5034222;28;20024;-72
2022/05/05 08:57:43;;;;;;;38.47;23.45;;;16.50;99.90;;;;;;5036313;28;20034;-73
2022/05/05 09:00:10;;;;;;;32.72;21.20;;;16.60;99.90;;;;;;5034433;28;20037;-72
2022/05/05 09:02:36;;;;;;;41.97;23.60;;;16.80;99.90;;;;;;5034171;28;20107;-73
2022/05/05 09:05:06;;;;;;;27.75;20.92;;;16.90;99.90;;;;;;5035321;28;20049;-72
2022/05/05 09:07:51;;;;;;;35.25;23.58;;;17.00;99.90;;;;;;5039124;28;20052;-72
2022/05/05 09:10:19;;;;;;;40.97;26.10;;;17.10;99.90;;;;;;5036348;28;20033;-73
2022/05/05 09:12:58;;;;;;;41.67;26.00;;;17.20;99.90;;;;;;5035982;28;20037;-73
2022/05/05 09:15:32;;;;;;;39.95;26.63;;;17.30;99.90;;;;;;5035792;28;20485;-72
2022/05/05 09:18:22;;;;;;;42.13;27.10;;;17.30;99.90;;;;;;5034664;28;20042;-71
2022/05/05 09:20:49;;;;;;;46.95;29.42;;;17.40;99.90;;;;;;5034813;28;20519;-73
2022/05/05 09:26:26;;;;;;;41.70;25.20;;;17.50;99.90;;;;;;5035905;28;20051;-74
2022/05/05 09:28:52;;;;;;;44.83;26.48;;;17.60;99.90;;;;;;5035394;28;20029;-73
2022/05/05 09:31:18;;;;;;;42.80;25.67;;;17.70;99.90;;;;;;5035256;28;20033;-72
2022/05/05 09:33:45;;;;;;;43.40;27.52;;;17.80;99.90;;;;;;5035852;28;20021;-72
2022/05/05 09:36:15;;;;;;;38.78;25.67;;;17.90;99.90;;;;;;5035338;28;20039;-72
2022/05/05 09:39:19;;;;;;;41.25;26.88;;;18.00;99.90;;;;;;5034749;28;20044;-72
2022/05/05 09:41:46;;;;;;;43.08;25.92;;;18.10;99.90;;;;;;5033162;28;20045;-73
2022/05/05 09:44:21;;;;;;;45.63;26.90;;;18.20;99.90;;;;;;5032156;28;20051;-72
2022/05/05 09:46:52;;;;;;;38.88;25.40;;;18.30;99.90;;;;;;5023690;28;20041;-73
2022/05/05 09:49:34;;;;;;;39.88;27.60;;;18.30;99.90;;;;;;5035092;28;20036;-73
2022/05/05 09:58:40;;;;;;;45.80;28.27;;;18.60;99.90;;;;;;5034265;28;20151;-71
2022/05/05 10:01:10;;;;;;;44.92;28.55;;;18.70;99.90;;;;;;5034294;28;20041;-72
2022/05/05 10:04:00;;;;;;;38.70;25.55;;;18.80;99.90;;;;;;5028427;28;20033;-71
2022/05/05 10:06:27;;;;;;;44.10;28.60;;;18.80;99.90;;;;;;4995537;28;20030;-71
2022/05/05 10:08:56;;;;;;;44.08;27.38;;;19.00;99.90;;;;;;4995306;28;20077;-71
2022/05/05 10:11:22;;;;;;;43.83;28.92;;;19.00;99.90;;;;;;5013236;28;20037;-70
2022/05/05 10:13:51;;;;;;;39.10;26.67;;;19.10;99.90;;;;;;5013838;28;20064;-70
2022/05/05 10:16:20;;;;;;;40.67;25.42;;;19.10;99.90;;;;;;5014849;28;20030;-70
2022/05/05 10:18:45;;;;;;;37.88;24.52;;;19.20;99.90;;;;;;4996989;28;20029;-70
2022/05/05 10:21:46;;;;;;;45.72;27.45;;;19.20;99.90;;;;;;4994035;28;20038;-70
2022/05/05 10:24:24;;;;;;;36.38;26.00;;;19.30;99.90;;;;;;4994947;28;20109;-70
2022/05/05 10:26:51;;;;;;;39.55;25.35;;;19.40;99.90;;;;;;5016048;28;20474;-70
2022/05/05 10:29:35;;;;;;;34.38;25.00;;;19.50;99.90;;;;;;5028102;28;20431;-70
2022/05/05 10:32:09;;;;;;;45.75;28.85;;;19.70;99.90;;;;;;5032778;28;20032;-71
2022/05/05 10:34:37;;;;;;;39.75;25.48;;;19.70;99.60;;;;;;5030852;28;20040;-71
2022/05/05 10:37:11;;;;;;;42.70;26.15;;;19.70;99.40;;;;;;5027803;28;20108;-71
2022/05/05 10:39:48;;;;;;;47.30;28.95;;;19.70;99.70;;;;;;5030169;28;20076;-71
2022/05/05 10:42:15;;;;;;;40.63;28.05;;;19.70;99.70;;;;;;5030594;28;20092;-69
2022/05/05 10:45:09;;;;;;;36.60;25.27;;;19.70;99.90;;;;;;5029944;28;20498;-70
2022/05/05 10:48:01;;;;;;;35.28;23.83;;;19.90;99.70;;;;;;5031434;28;20094;-71
2022/05/05 10:50:26;;;;;;;43.72;26.27;;;20.00;99.30;;;;;;5033647;28;20025;-71
2022/05/05 10:52:52;;;;;;;40.67;26.80;;;20.10;99.10;;;;;;5034046;28;20018;-72
2022/05/05 10:55:26;;;;;;;37.08;26.13;;;20.20;99.00;;;;;;5033036;28;20112;-71
2022/05/05 10:57:55;;;;;;;36.35;23.60;;;20.30;98.60;;;;;;5032869;28;20018;-71
2022/05/05 11:00:22;;;;;;;39.60;25.17;;;20.30;98.50;;;;;;5011648;28;20125;-71
2022/05/05 11:03:02;;;;;;;36.72;25.10;;;20.50;98.10;;;;;;5007806;28;20029;-71
2022/05/05 11:05:38;;;;;;;43.17;27.88;;;20.50;98.20;;;;;;5006115;28;20057;-71
2022/05/05 11:08:07;;;;;;;38.33;26.30;;;20.60;97.50;;;;;;5008785;28;20037;-71
2022/05/05 11:13:46;;;;;;;37.95;25.70;;;20.70;97.90;;;;;;4999505;28;20080;-72
2022/05/05 11:22:14;;;;;;;28.90;20.95;;;20.70;97.20;;;;;;5005521;28;20053;-72
2022/05/05 11:24:45;;;;;;;33.65;24.75;;;20.80;96.80;;;;;;5002917;28;20531;-72
2022/05/05 11:27:12;;;;;;;36.00;26.00;;;20.90;96.10;;;;;;4995967;28;20213;-72
2022/05/05 11:29:38;;;;;;;34.67;25.30;;;20.70;96.10;;;;;;4996143;28;20030;-71
2022/05/05 11:32:07;;;;;;;29.55;21.95;;;20.60;96.70;;;;;;4994185;28;20022;-71
2022/05/05 11:34:38;;;;;;;36.05;23.30;;;20.70;96.90;;;;;;5002975;28;20439;-71
2022/05/05 11:37:05;;;;;;;45.85;26.23;;;20.70;95.90;;;;;;5002178;28;20395;-71
2022/05/05 11:39:32;;;;;;;39.45;26.77;;;20.60;96.20;;;;;;4994737;28;20107;-71
2022/05/05 11:42:09;;;;;;;34.47;25.70;;;20.40;97.10;;;;;;4996319;28;20390;-72
2022/05/05 11:44:39;;;;;;;37.85;26.83;;;20.40;96.90;;;;;;5012924;28;20042;-72
2022/05/05 11:47:17;;;;;;;28.05;21.30;;;20.30;97.30;;;;;;5006192;28;20069;-72
2022/05/05 11:49:48;;;;;;;31.10;22.02;;;20.30;97.00;;;;;;4998998;28;20127;-71
2022/05/05 11:52:21;;;;;;;27.20;19.25;;;20.30;96.20;;;;;;4998089;28;20041;-70
2022/05/05 11:54:49;;;;;;;27.70;19.80;;;20.40;96.30;;;;;;5006465;28;20025;-71
2022/05/05 11:57:38;;;;;;;28.75;22.27;;;20.60;96.40;;;;;;5032203;28;20049;-71
2022/05/05 12:02:50;;;;;;;26.77;20.80;;;20.90;96.10;;;;;;5032608;28;20128;-72
2022/05/05 12:05:17;;;;;;;33.10;23.15;;;21.10;96.10;;;;;;5025432;28;20534;-72
2022/05/05 12:07:46;;;;;;;30.05;22.40;;;21.30;95.10;;;;;;5008363;28;20029;-72
2022/05/05 12:10:14;;;;;;;27.10;21.25;;;21.40;95.60;;;;;;5013714;28;20053;-71
2022/05/05 12:12:52;;;;;;;37.83;24.67;;;21.50;95.50;;;;;;5012845;28;20034;-72
2022/05/05 12:15:20;;;;;;;35.20;25.30;;;21.50;94.70;;;;;;5018874;28;20033;-72
2022/05/05 12:17:52;;;;;;;40.20;26.98;;;21.30;94.90;;;;;;5027284;28;20029;-72
2022/05/05 12:20:19;;;;;;;33.20;24.33;;;20.90;95.50;;;;;;5013764;28;20038;-72
2022/05/05 12:22:54;;;;;;;35.60;23.95;;;20.60;95.70;;;;;;5014150;28;20037;-72
2022/05/05 12:25:21;;;;;;;41.72;26.92;;;20.50;95.90;;;;;;5013120;28;20026;-71
2022/05/05 12:28:03;;;;;;;36.72;27.85;;;20.60;96.20;;;;;;5011792;28;20467;-71
2022/05/05 12:30:36;;;;;;;38.78;28.08;;;20.50;96.90;;;;;;5012110;28;20038;-71
2022/05/05 12:33:07;;;;;;;40.20;27.45;;;20.50;96.80;;;;;;5031957;28;20052;-72
2022/05/05 12:35:44;;;;;;;37.85;26.25;;;20.40;96.40;;;;;;5024222;28;20033;-73
2022/05/05 12:38:12;;;;;;;30.50;22.55;;;20.40;96.80;;;;;;5012711;28;20042;-72
2022/05/05 12:40:43;;;;;;;33.67;24.15;;;20.60;96.50;;;;;;5012162;28;20125;-74
2022/05/05 12:43:14;;;;;;;33.33;23.73;;;20.60;95.90;;;;;;5019569;28;20065;-73
2022/05/05 12:45:40;;;;;;;46.30;24.20;;;20.50;94.70;;;;;;5030978;28;20036;-73
2022/05/05 12:48:09;;;;;;;33.50;24.13;;;20.50;95.20;;;;;;5033441;28;20456;-73
2022/05/05 12:50:46;;;;;;;36.38;24.63;;;20.50;95.90;;;;;;5035609;28;20037;-72
2022/05/05 13:01:31;;;;;;;31.92;21.95;;;20.40;95.50;;;;;;5031045;28;20508;-71
2022/05/05 13:04:06;;;;;;;31.58;23.63;;;20.30;94.90;;;;;;5032470;28;20075;-71
2022/05/05 13:06:36;;;;;;;36.13;23.58;;;20.40;95.20;;;;;;5032996;28;20078;-71
2022/05/05 13:09:05;;;;;;;27.20;20.75;;;20.30;95.50;;;;;;5031989;28;20041;-73
2022/05/05 13:11:31;;;;;;;35.50;24.70;;;20.40;96.10;;;;;;5032689;28;20048;-71
2022/05/05 13:14:03;;;;;;;33.03;22.65;;;20.40;95.80;;;;;;5032384;28;20136;-72
2022/05/05 13:16:32;;;;;;;27.02;21.08;;;20.50;96.20;;;;;;5032035;28;20078;-73
2022/05/05 13:18:59;;;;;;;26.40;20.58;;;20.40;95.10;;;;;;5031434;28;20025;-72
2022/05/05 13:21:29;;;;;;;28.52;21.02;;;20.60;95.20;;;;;;5032681;28;20041;-72
2022/05/05 13:23:55;;;;;;;;;;;20.70;94.90;;;;;;5032277;28;20072;-72
2022/05/05 13:26:21;;;;;;;27.50;20.33;;;20.90;93.90;;;;;;5032238;28;19920;-71
2022/05/05 13:28:47;;;;;;;27.10;20.30;;;21.00;94.00;;;;;;5031778;28;20021;-72
2022/05/05 13:31:13;;;;;;;33.25;23.52;;;21.10;94.20;;;;;;5031376;28;20032;-72
2022/05/05 13:33:38;;;;;;;30.42;22.90;;;21.20;94.30;;;;;;5029376;28;20021;-71
2022/05/05 13:36:05;;;;;;;26.80;21.38;;;21.40;94.80;;;;;;5030152;28;20041;-72